Time;durP1;ratioP1;P1;durP2;ratioP2;P2;SDS_P1;SDS_P2;PMS_P1;PMS_P2;Temp;Humidity;BMP_temperature;BMP_pressure;BME280_temperature;BME280_humidity;BME280_pressure;Samples;Min_cycle;Max_cycle;Signal;HPM_P1;HPM_P2
2023/08/11 00:00:48;;;;;;;1.77;1.10;;;19.80;74.90;;;;;;5044137;28;20037;-66
2023/08/11 00:03:14;;;;;;;4.53;1.17;;;19.70;75.00;;;;;;5051616;28;20043;-66
2023/08/11 00:05:40;;;;;;;1.85;0.80;;;19.70;75.00;;;;;;5046292;28;20059;-66
2023/08/11 00:08:08;;;;;;;1.00;1.00;;;19.70;75.00;;;;;;5045546;28;20029;-66
2023/08/11 00:10:34;;;;;;;1.65;0.90;;;19.70;75.10;;;;;;5053915;28;20391;-66
2023/08/11 00:13:01;;;;;;;1.23;0.90;;;19.70;75.00;;;;;;5046441;28;20455;-66
2023/08/11 00:15:31;;;;;;;0.73;0.73;;;19.70;75.00;;;;;;5041745;28;20040;-62
2023/08/11 00:18:00;;;;;;;1.08;0.80;;;19.70;75.10;;;;;;5041537;28;20040;-62
2023/08/11 00:20:29;;;;;;;0.90;0.90;;;19.70;75.00;;;;;;5044555;28;20508;-62
2023/08/11 00:22:55;;;;;;;0.90;0.73;;;19.60;75.00;;;;;;5045461;28;20037;-62
2023/08/11 00:25:24;;;;;;;1.13;1.00;;;19.60;75.10;;;;;;5052125;28;20575;-62
2023/08/11 00:27:50;;;;;;;0.98;0.80;;;19.60;75.10;;;;;;5049999;28;20029;-62
2023/08/11 00:30:16;;;;;;;1.33;1.15;;;19.60;75.10;;;;;;5044516;28;20040;-62
2023/08/11 00:32:41;;;;;;;0.93;0.90;;;19.50;75.10;;;;;;5050620;28;20409;-62
2023/08/11 00:35:07;;;;;;;1.20;1.02;;;19.50;75.10;;;;;;5050693;28;20033;-62
2023/08/11 00:37:34;;;;;;;0.60;0.60;;;19.50;75.20;;;;;;5048741;28;20033;-66
2023/08/11 00:39:59;;;;;;;2.25;1.50;;;19.50;75.20;;;;;;5033128;28;20431;-66
2023/08/11 00:42:25;;;;;;;0.90;0.90;;;19.40;75.20;;;;;;5047045;28;20040;-66
2023/08/11 00:44:51;;;;;;;0.85;0.85;;;19.40;75.30;;;;;;5054597;28;20045;-66
2023/08/11 00:47:17;;;;;;;0.90;0.90;;;19.40;75.30;;;;;;5045775;28;20034;-66
2023/08/11 00:49:43;;;;;;;1.20;0.98;;;19.40;75.30;;;;;;5043335;28;20029;-62
2023/08/11 00:52:12;;;;;;;1.38;0.90;;;19.40;75.40;;;;;;5037749;28;20109;-62
2023/08/11 00:54:39;;;;;;;1.42;1.10;;;19.40;75.40;;;;;;5048348;28;20035;-62
2023/08/11 00:57:05;;;;;;;1.00;0.70;;;19.40;75.40;;;;;;5049398;28;20036;-62
2023/08/11 00:59:31;;;;;;;1.00;0.77;;;19.30;75.50;;;;;;5051186;28;20032;-66
2023/08/11 01:01:56;;;;;;;1.00;0.80;;;19.30;75.40;;;;;;5047064;28;20121;-66
2023/08/11 01:04:22;;;;;;;1.25;0.75;;;19.30;75.50;;;;;;5049055;28;20041;-67
2023/08/11 01:07:24;;;;;;;0.82;0.65;;;19.30;75.60;;;;;;5045983;28;20033;-67
2023/08/11 01:10:33;;;;;;;1.02;1.00;;;19.30;75.50;;;;;;5039623;28;20055;-67
2023/08/11 01:13:18;;;;;;;1.13;1.05;;;19.30;75.60;;;;;;5039261;28;20025;-67
2023/08/11 01:16:00;;;;;;;1.52;1.00;;;19.20;75.60;;;;;;5044408;28;20323;-66
2023/08/11 01:18:28;;;;;;;1.20;1.10;;;19.20;75.70;;;;;;5037702;28;20558;-66
2023/08/11 01:20:58;;;;;;;1.17;1.05;;;19.20;75.80;;;;;;5051285;28;20429;-66
2023/08/11 01:23:24;;;;;;;1.20;0.82;;;19.20;75.90;;;;;;5043978;28;20029;-66
2023/08/11 01:25:51;;;;;;;0.82;0.80;;;19.20;75.90;;;;;;5054433;28;20128;-66
2023/08/11 01:28:17;;;;;;;0.90;0.90;;;19.10;75.90;;;;;;5028843;28;20032;-66
2023/08/11 01:30:43;;;;;;;1.35;0.98;;;19.10;75.90;;;;;;5046942;28;20033;-66
2023/08/11 01:33:09;;;;;;;1.80;1.00;;;19.10;76.00;;;;;;5046674;28;20039;-66
2023/08/11 01:35:34;;;;;;;1.58;0.70;;;19.10;76.10;;;;;;5053184;28;20124;-66
2023/08/11 01:38:00;;;;;;;0.70;0.70;;;19.10;76.00;;;;;;5045414;28;20373;-66
2023/08/11 01:40:26;;;;;;;0.98;0.80;;;19.10;76.10;;;;;;5054389;28;20053;-66
2023/08/11 01:42:55;;;;;;;0.90;0.90;;;19.10;76.10;;;;;;5046750;28;20116;-66
2023/08/11 01:45:21;;;;;;;1.02;0.90;;;19.10;76.10;;;;;;5058130;28;20116;-66
2023/08/11 01:47:48;;;;;;;1.17;0.95;;;19.00;76.00;;;;;;5049962;28;20037;-66
2023/08/11 01:50:15;;;;;;;1.00;0.90;;;19.10;76.20;;;;;;5050148;28;20026;-68
2023/08/11 01:52:45;;;;;;;1.10;0.88;;;19.00;76.10;;;;;;5040504;28;20454;-68
2023/08/11 01:55:13;;;;;;;1.40;0.90;;;19.00;76.10;;;;;;5054633;28;20040;-66
2023/08/11 01:57:39;;;;;;;1.38;1.13;;;19.00;76.20;;;;;;5049484;28;20049;-66
2023/08/11 02:00:09;;;;;;;2.05;0.90;;;19.00;76.30;;;;;;5051339;28;20029;-66
2023/08/11 02:02:34;;;;;;;1.15;0.68;;;19.00;77.00;;;;;;5048598;28;20025;-66
2023/08/11 02:05:00;;;;;;;0.85;0.80;;;18.90;76.40;;;;;;5048838;28;20036;-61
2023/08/11 02:07:26;;;;;;;1.20;1.10;;;18.90;76.40;;;;;;5041793;28;20491;-61
2023/08/11 02:09:54;;;;;;;1.45;1.05;;;18.90;76.50;;;;;;5052277;28;20055;-61
2023/08/11 02:12:20;;;;;;;1.20;1.10;;;18.90;76.50;;;;;;5048096;28;20026;-62
2023/08/11 02:14:46;;;;;;;1.20;0.70;;;18.90;76.70;;;;;;5033828;28;20026;-62
2023/08/11 02:17:11;;;;;;;1.23;1.13;;;18.80;76.70;;;;;;5051785;28;20936;-62
2023/08/11 02:19:37;;;;;;;1.25;1.15;;;18.80;76.70;;;;;;5047412;28;20037;-61
2023/08/11 02:22:03;;;;;;;0.70;0.68;;;18.80;76.70;;;;;;5049838;28;20032;-61
2023/08/11 02:24:29;;;;;;;0.77;0.60;;;18.80;76.70;;;;;;5051876;28;20411;-62
2023/08/11 02:26:55;;;;;;;1.08;1.08;;;18.80;76.80;;;;;;5049724;28;20029;-61
2023/08/11 02:29:22;;;;;;;3.10;1.00;;;18.80;76.80;;;;;;5051223;28;20120;-61
2023/08/11 02:31:48;;;;;;;1.05;0.90;;;18.80;76.80;;;;;;5051248;28;20200;-63
2023/08/11 02:34:15;;;;;;;1.05;0.95;;;18.70;76.80;;;;;;5054555;28;20079;-63
2023/08/11 02:36:40;;;;;;;1.50;1.02;;;18.70;77.00;;;;;;5047282;28;20041;-67
2023/08/11 02:39:06;;;;;;;0.80;0.75;;;18.70;77.00;;;;;;5051030;28;20052;-67
2023/08/11 02:41:33;;;;;;;1.05;1.02;;;18.70;77.10;;;;;;5055469;28;20093;-66
2023/08/11 02:43:58;;;;;;;1.13;1.00;;;18.60;77.10;;;;;;5051691;28;20029;-66
2023/08/11 02:46:24;;;;;;;1.02;0.82;;;18.60;77.20;;;;;;5036561;28;20127;-67
2023/08/11 02:48:50;;;;;;;1.00;0.82;;;18.60;77.20;;;;;;5050396;28;20033;-67
2023/08/11 02:51:16;;;;;;;1.05;0.95;;;18.60;77.20;;;;;;5045351;28;20071;-67
2023/08/11 02:53:41;;;;;;;1.05;0.95;;;18.60;77.20;;;;;;5046015;28;20043;-67
2023/08/11 02:56:09;;;;;;;1.05;0.93;;;18.60;77.20;;;;;;5042875;28;20025;-63
2023/08/11 02:58:35;;;;;;;1.25;1.10;;;18.50;77.20;;;;;;5042785;28;20075;-63
2023/08/11 03:01:02;;;;;;;1.02;0.60;;;18.50;77.20;;;;;;5041983;28;20453;-63
2023/08/11 03:03:28;;;;;;;1.98;1.27;;;18.50;77.30;;;;;;5043617;28;20479;-63
2023/08/11 03:05:55;;;;;;;3.25;1.00;;;18.50;77.30;;;;;;5050709;28;20028;-63
2023/08/11 03:08:21;;;;;;;2.63;1.45;;;18.50;77.30;;;;;;5049675;28;20084;-63
2023/08/11 03:10:47;;;;;;;0.88;0.85;;;18.50;77.40;;;;;;5048858;28;20128;-63
2023/08/11 03:13:13;;;;;;;1.23;0.77;;;18.50;77.40;;;;;;5049823;28;20112;-67
2023/08/11 03:15:38;;;;;;;3.10;1.50;;;18.40;77.40;;;;;;5035076;28;20043;-62
2023/08/11 03:18:04;;;;;;;1.75;1.20;;;18.40;77.40;;;;;;5035992;28;20403;-63
2023/08/11 03:20:30;;;;;;;1.27;1.10;;;18.40;77.50;;;;;;5036573;28;20037;-63
2023/08/11 03:22:56;;;;;;;1.50;0.95;;;18.40;77.60;;;;;;5040939;28;20029;-67
2023/08/11 03:25:21;;;;;;;1.38;1.13;;;18.40;77.70;;;;;;5043356;28;20091;-67
2023/08/11 03:27:47;;;;;;;1.55;1.10;;;18.30;77.60;;;;;;5047719;28;20045;-67
2023/08/11 03:30:13;;;;;;;1.38;0.85;;;18.30;77.50;;;;;;5060573;28;20103;-68
2023/08/11 03:32:39;;;;;;;1.92;1.17;;;18.30;77.50;;;;;;5040178;28;20032;-68
2023/08/11 03:35:06;;;;;;;1.33;1.23;;;18.40;77.60;;;;;;5036984;28;20509;-67
2023/08/11 03:37:33;;;;;;;1.30;1.17;;;18.30;77.60;;;;;;5047087;28;20094;-67
2023/08/11 03:39:59;;;;;;;1.10;0.95;;;18.30;77.60;;;;;;5051231;28;20021;-67
2023/08/11 03:42:24;;;;;;;1.45;1.35;;;18.30;77.60;;;;;;5045464;28;20511;-67
2023/08/11 03:44:51;;;;;;;1.38;1.17;;;18.30;77.60;;;;;;5049905;28;20373;-67
2023/08/11 03:47:18;;;;;;;1.20;1.08;;;18.20;77.60;;;;;;5049738;28;20032;-63
2023/08/11 03:49:45;;;;;;;1.23;1.08;;;18.20;77.60;;;;;;5053696;28;20025;-63
2023/08/11 03:52:12;;;;;;;1.52;0.88;;;18.20;77.70;;;;;;5045658;28;20484;-63
2023/08/11 03:54:37;;;;;;;1.10;1.00;;;18.20;77.70;;;;;;5050520;28;20052;-63
2023/08/11 03:57:03;;;;;;;1.27;1.17;;;18.20;77.70;;;;;;5043262;28;20530;-62
2023/08/11 03:59:29;;;;;;;1.30;1.20;;;18.20;77.70;;;;;;5049980;28;20032;-66
2023/08/11 04:02:00;;;;;;;2.28;0.90;;;18.20;77.70;;;;;;5043428;28;20105;-67
2023/08/11 04:04:30;;;;;;;;;;;18.20;77.70;;;;;;5046273;28;20051;-67
2023/08/11 04:06:57;;;;;;;1.65;0.95;;;18.10;77.70;;;;;;5037808;28;20371;-67
2023/08/11 04:09:24;;;;;;;1.02;0.95;;;18.10;77.80;;;;;;5052884;28;20507;-66
2023/08/11 04:11:49;;;;;;;1.50;1.30;;;18.10;77.80;;;;;;5052780;28;20075;-67
2023/08/11 04:14:15;;;;;;;1.40;1.15;;;18.10;77.80;;;;;;5059839;28;20035;-66
2023/08/11 04:16:41;;;;;;;1.75;1.20;;;18.10;77.80;;;;;;5051264;28;20372;-67
2023/08/11 04:19:06;;;;;;;2.20;1.30;;;18.10;77.90;;;;;;5051603;28;20032;-67
2023/08/11 04:21:32;;;;;;;1.45;0.98;;;18.10;77.90;;;;;;5043302;28;20110;-67
2023/08/11 04:23:58;;;;;;;1.88;1.30;;;18.10;77.90;;;;;;5039035;28;20028;-67
2023/08/11 04:26:23;;;;;;;2.38;1.55;;;18.00;77.80;;;;;;5034051;28;20100;-67
2023/08/11 04:28:49;;;;;;;2.85;1.63;;;18.10;78.00;;;;;;5037195;28;20056;-67
2023/08/11 04:31:15;;;;;;;3.22;0.95;;;18.00;77.90;;;;;;5040782;28;20033;-67
2023/08/11 04:33:41;;;;;;;1.40;1.30;;;18.10;77.90;;;;;;5040996;28;20512;-68
2023/08/11 04:36:07;;;;;;;1.85;1.60;;;18.10;78.00;;;;;;5048671;28;20064;-67
2023/08/11 04:38:33;;;;;;;2.35;1.00;;;18.10;78.00;;;;;;5042590;28;20056;-62
2023/08/11 04:40:59;;;;;;;1.50;1.25;;;18.10;78.00;;;;;;5043810;28;20056;-62
2023/08/11 04:43:24;;;;;;;1.67;1.13;;;18.10;78.00;;;;;;5036991;28;20029;-62
2023/08/11 04:45:50;;;;;;;2.05;1.02;;;18.10;78.00;;;;;;5075599;28;20450;-63
2023/08/11 04:48:16;;;;;;;1.40;1.00;;;18.10;78.00;;;;;;5044082;28;20025;-67
2023/08/11 04:50:42;;;;;;;2.35;1.45;;;18.10;78.00;;;;;;5044438;28;20056;-67
2023/08/11 04:53:08;;;;;;;1.27;1.20;;;18.10;78.00;;;;;;5045508;28;20048;-62
2023/08/11 04:55:34;;;;;;;1.92;1.30;;;18.20;78.10;;;;;;5041443;28;20044;-62
2023/08/11 04:58:00;;;;;;;1.02;0.90;;;18.20;78.20;;;;;;5025314;28;20033;-62
2023/08/11 05:00:26;;;;;;;2.05;1.02;;;18.20;78.20;;;;;;5046000;28;20411;-62
2023/08/11 05:02:52;;;;;;;4.53;1.40;;;18.30;78.20;;;;;;5040489;28;20493;-67
2023/08/11 05:05:19;;;;;;;1.27;1.17;;;18.30;78.20;;;;;;5047128;28;20415;-67
2023/08/11 05:07:46;;;;;;;2.15;1.60;;;18.30;78.30;;;;;;5039277;28;20024;-67
2023/08/11 05:10:11;;;;;;;1.10;1.00;;;18.30;78.30;;;;;;5049348;28;20464;-62
2023/08/11 05:12:37;;;;;;;3.63;1.50;;;18.40;78.30;;;;;;5045054;28;20031;-63
2023/08/11 05:15:04;;;;;;;1.85;1.27;;;18.40;78.30;;;;;;5038229;28;20566;-63
2023/08/11 05:17:31;;;;;;;3.08;1.63;;;18.50;78.30;;;;;;5036782;28;20025;-63
2023/08/11 05:19:57;;;;;;;1.17;1.08;;;18.50;78.30;;;;;;5052680;28;20025;-63
2023/08/11 05:22:23;;;;;;;1.63;1.20;;;18.60;78.30;;;;;;5048091;28;20021;-67
2023/08/11 05:24:49;;;;;;;1.83;1.10;;;18.60;78.20;;;;;;5041431;28;20487;-63
2023/08/11 05:27:15;;;;;;;1.65;1.50;;;18.70;78.20;;;;;;5045757;28;20040;-63
2023/08/11 05:29:45;;;;;;;3.33;1.35;;;18.80;78.10;;;;;;5047436;28;20029;-63
2023/08/11 05:32:11;;;;;;;2.25;1.50;;;18.90;78.10;;;;;;5050155;28;20024;-63
2023/08/11 05:34:38;;;;;;;2.00;1.58;;;18.90;78.70;;;;;;5048011;28;20025;-63
2023/08/11 05:37:05;;;;;;;1.70;1.30;;;18.90;78.00;;;;;;5036659;28;20284;-62
2023/08/11 05:39:31;;;;;;;2.83;1.38;;;19.00;78.10;;;;;;5047708;28;20083;-63
2023/08/11 05:41:56;;;;;;;1.50;1.25;;;19.00;78.10;;;;;;5043212;28;20034;-62
2023/08/11 05:44:22;;;;;;;3.15;1.33;;;19.10;78.10;;;;;;5051462;28;20033;-67
2023/08/11 05:46:48;;;;;;;1.85;1.20;;;19.20;78.00;;;;;;5040519;28;20380;-67
2023/08/11 05:49:14;;;;;;;2.83;1.05;;;19.20;77.90;;;;;;5045010;28;20033;-67
2023/08/11 05:51:39;;;;;;;2.47;1.55;;;19.20;77.90;;;;;;5047061;28;20033;-67
2023/08/11 05:54:05;;;;;;;2.10;1.35;;;19.30;77.80;;;;;;5054185;28;20371;-67
2023/08/11 05:56:31;;;;;;;1.85;1.40;;;19.40;77.80;;;;;;5041705;28;20079;-67
2023/08/11 05:58:57;;;;;;;1.48;1.30;;;19.40;77.70;;;;;;5037321;28;20400;-67
2023/08/11 06:01:22;;;;;;;1.75;1.40;;;19.50;77.70;;;;;;5045484;28;20047;-67
2023/08/11 06:03:48;;;;;;;1.55;1.40;;;19.50;77.70;;;;;;5052504;28;20033;-67
2023/08/11 06:06:14;;;;;;;1.85;1.33;;;19.60;77.70;;;;;;5049776;28;20384;-67
2023/08/11 06:08:39;;;;;;;2.25;1.90;;;19.60;77.60;;;;;;5044853;28;20022;-67
2023/08/11 06:11:05;;;;;;;2.42;1.55;;;19.70;77.60;;;;;;5054561;28;20045;-67
2023/08/11 06:13:31;;;;;;;1.85;1.63;;;19.80;77.60;;;;;;5044834;28;20645;-62
2023/08/11 06:15:57;;;;;;;1.65;1.20;;;19.80;77.50;;;;;;5035961;28;20025;-62
2023/08/11 06:18:22;;;;;;;1.70;1.10;;;19.90;78.00;;;;;;5036134;28;20468;-62
2023/08/11 06:20:48;;;;;;;2.38;1.60;;;19.90;77.20;;;;;;5044582;28;20037;-62
2023/08/11 06:23:14;;;;;;;1.98;1.25;;;19.90;77.10;;;;;;5042478;28;20029;-62
2023/08/11 06:25:40;;;;;;;2.72;1.80;;;20.00;77.10;;;;;;5050078;28;20029;-63
2023/08/11 06:28:07;;;;;;;2.17;1.98;;;20.10;77.00;;;;;;5040907;28;20082;-61
2023/08/11 06:30:33;;;;;;;1.52;1.25;;;20.10;76.90;;;;;;5040273;28;20761;-62
2023/08/11 06:32:58;;;;;;;2.53;1.60;;;20.10;76.90;;;;;;5052417;28;20024;-62
2023/08/11 06:35:25;;;;;;;1.35;1.23;;;20.20;76.90;;;;;;5042809;28;20029;-67
2023/08/11 06:37:51;;;;;;;2.35;1.50;;;20.30;76.80;;;;;;5051530;28;20033;-66
2023/08/11 06:40:17;;;;;;;2.15;1.55;;;20.30;76.60;;;;;;5042058;28;20347;-66
2023/08/11 06:42:42;;;;;;;2.08;1.13;;;20.40;76.50;;;;;;5052200;28;20095;-67
2023/08/11 06:45:08;;;;;;;5.00;2.10;;;20.40;76.40;;;;;;5048290;28;20044;-67
2023/08/11 06:47:35;;;;;;;2.47;1.38;;;20.50;76.40;;;;;;5044652;28;20067;-67
2023/08/11 06:50:01;;;;;;;1.45;1.30;;;20.50;76.20;;;;;;5047614;28;20028;-67
2023/08/11 06:52:27;;;;;;;1.95;1.40;;;20.50;76.10;;;;;;5046658;28;20484;-62
2023/08/11 06:54:53;;;;;;;2.42;1.20;;;20.60;76.00;;;;;;5048608;28;20028;-68
2023/08/11 06:57:22;;;;;;;1.60;1.50;;;20.70;75.90;;;;;;5055116;28;20040;-62
2023/08/11 06:59:48;;;;;;;1.95;1.60;;;20.80;75.80;;;;;;5041586;28;20029;-62
2023/08/11 07:02:14;;;;;;;1.30;1.10;;;20.80;75.80;;;;;;5051759;28;20395;-62
2023/08/11 07:04:40;;;;;;;2.15;1.60;;;20.90;75.50;;;;;;5040349;28;20245;-63
2023/08/11 07:07:06;;;;;;;2.13;1.88;;;20.90;75.30;;;;;;5049175;28;20033;-61
2023/08/11 07:09:33;;;;;;;1.65;1.23;;;20.90;75.20;;;;;;5048951;28;20556;-62
2023/08/11 07:11:58;;;;;;;1.23;1.10;;;21.00;75.20;;;;;;5048213;28;20037;-62
2023/08/11 07:14:24;;;;;;;3.45;1.25;;;21.00;75.00;;;;;;5047395;28;20033;-63
2023/08/11 07:16:50;;;;;;;2.20;1.17;;;21.10;74.90;;;;;;5043601;28;20033;-61
2023/08/11 07:19:16;;;;;;;1.85;1.35;;;21.20;74.90;;;;;;5047439;28;20112;-62
2023/08/11 07:21:41;;;;;;;1.95;1.17;;;21.30;74.80;;;;;;5038680;28;20045;-62
2023/08/11 07:24:07;;;;;;;1.55;1.00;;;21.40;74.70;;;;;;5040088;28;20045;-62
2023/08/11 07:26:33;;;;;;;1.35;1.10;;;21.50;74.50;;;;;;5043663;28;20065;-68
2023/08/11 07:28:58;;;;;;;1.70;1.23;;;21.60;74.30;;;;;;5049920;28;20094;-68
2023/08/11 07:31:24;;;;;;;2.22;1.30;;;21.70;74.10;;;;;;5047314;28;20427;-69
2023/08/11 07:33:50;;;;;;;1.95;1.67;;;21.70;73.90;;;;;;5040881;28;20083;-68
2023/08/11 07:36:16;;;;;;;1.65;1.40;;;21.80;73.90;;;;;;5046809;28;20388;-68
2023/08/11 07:38:42;;;;;;;1.50;1.10;;;21.80;73.80;;;;;;5038701;28;20038;-68
2023/08/11 07:41:08;;;;;;;2.05;1.55;;;21.90;73.70;;;;;;5041477;28;20036;-68
2023/08/11 07:43:33;;;;;;;2.50;1.70;;;22.00;73.60;;;;;;5042887;28;20036;-62
2023/08/11 07:45:59;;;;;;;1.33;1.15;;;22.00;73.30;;;;;;5040184;28;20068;-63
2023/08/11 07:48:25;;;;;;;3.15;1.40;;;22.10;73.20;;;;;;5049778;28;20161;-62
2023/08/11 07:50:51;;;;;;;2.38;1.60;;;22.10;73.00;;;;;;5050887;28;20072;-62
2023/08/11 07:53:17;;;;;;;3.90;1.42;;;22.20;72.90;;;;;;5042155;28;20029;-63
2023/08/11 07:55:42;;;;;;;1.60;1.27;;;22.20;72.80;;;;;;5046350;28;20044;-63
2023/08/11 07:58:08;;;;;;;2.50;1.77;;;22.30;72.70;;;;;;5045058;28;20033;-63
2023/08/11 08:00:34;;;;;;;2.10;1.25;;;22.40;72.40;;;;;;5048296;28;20043;-63
2023/08/11 08:02:59;;;;;;;1.83;1.50;;;22.50;72.20;;;;;;5048783;28;20028;-63
2023/08/11 08:05:25;;;;;;;1.50;1.20;;;22.60;72.00;;;;;;5051963;28;20048;-68
2023/08/11 08:07:51;;;;;;;1.48;1.13;;;22.60;72.00;;;;;;5050197;28;20029;-68
2023/08/11 08:10:17;;;;;;;3.42;1.52;;;22.70;72.00;;;;;;5046278;28;20041;-63
2023/08/11 08:12:45;;;;;;;2.22;1.30;;;22.70;71.80;;;;;;5045446;28;20024;-63
2023/08/11 08:15:12;;;;;;;2.08;1.40;;;22.90;71.70;;;;;;5075172;28;20037;-62
2023/08/11 08:17:38;;;;;;;4.10;1.33;;;23.00;71.40;;;;;;5040162;28;20031;-62
2023/08/11 08:20:08;;;;;;;1.15;1.05;;;23.10;71.30;;;;;;5034274;28;20029;-61
2023/08/11 08:22:33;;;;;;;1.20;1.10;;;23.20;71.20;;;;;;5034637;28;20877;-61
2023/08/11 08:24:59;;;;;;;1.58;0.90;;;23.30;70.90;;;;;;5035354;28;20111;-67
2023/08/11 08:27:25;;;;;;;1.95;1.45;;;23.40;70.80;;;;;;5039156;28;20156;-67
2023/08/11 08:29:54;;;;;;;1.70;1.33;;;23.40;70.70;;;;;;5036604;28;20037;-67
2023/08/11 08:32:22;;;;;;;1.52;1.13;;;23.60;70.60;;;;;;5033444;28;20388;-67
2023/08/11 08:34:49;;;;;;;1.90;1.70;;;23.70;70.20;;;;;;5028170;28;20036;-67
2023/08/11 08:37:20;;;;;;;1.73;1.10;;;23.70;70.00;;;;;;5031571;28;20043;-67
2023/08/11 08:39:47;;;;;;;2.85;1.88;;;23.80;69.90;;;;;;5036788;28;20049;-67
2023/08/11 08:42:14;;;;;;;3.30;1.67;;;23.80;69.70;;;;;;5036737;28;20120;-62
2023/08/11 08:44:42;;;;;;;2.42;1.20;;;23.80;69.50;;;;;;5034357;28;20025;-61
2023/08/11 08:47:09;;;;;;;1.40;1.25;;;23.90;69.60;;;;;;5038223;28;20029;-67
2023/08/11 08:49:38;;;;;;;1.30;1.20;;;23.90;69.50;;;;;;5044649;28;20377;-67
2023/08/11 08:52:06;;;;;;;1.75;1.35;;;24.00;69.30;;;;;;5043580;28;20037;-67
2023/08/11 08:54:33;;;;;;;1.67;1.50;;;24.10;69.30;;;;;;5039560;28;20070;-67
2023/08/11 08:57:00;;;;;;;1.75;1.20;;;24.20;69.10;;;;;;5047986;28;20100;-67
2023/08/11 08:59:26;;;;;;;3.13;1.40;;;24.30;69.00;;;;;;5033870;28;20037;-67
2023/08/11 09:01:53;;;;;;;1.85;1.40;;;24.40;68.90;;;;;;5048960;28;20475;-67
2023/08/11 09:04:20;;;;;;;1.42;0.95;;;24.40;68.80;;;;;;5047746;28;20041;-67
2023/08/11 09:06:47;;;;;;;2.85;0.95;;;24.50;68.50;;;;;;5045134;28;20502;-67
2023/08/11 09:09:12;;;;;;;2.58;1.98;;;24.70;68.40;;;;;;5050738;28;20451;-62
2023/08/11 09:11:39;;;;;;;1.63;1.25;;;24.80;68.10;;;;;;5034215;28;20029;-62
2023/08/11 09:14:07;;;;;;;2.70;1.23;;;24.90;67.80;;;;;;5045274;28;20028;-62
2023/08/11 09:16:39;;;;;;;2.13;0.90;;;25.00;67.70;;;;;;5042776;28;20115;-62
2023/08/11 09:19:11;;;;;;;1.63;1.35;;;25.10;67.20;;;;;;5036796;28;20087;-61
2023/08/11 09:21:39;;;;;;;5.10;1.25;;;25.20;66.90;;;;;;5045427;28;20060;-62
2023/08/11 09:24:10;;;;;;;3.10;1.35;;;25.30;66.80;;;;;;5044713;28;20072;-62
2023/08/11 09:26:36;;;;;;;4.60;1.40;;;25.30;66.50;;;;;;5045674;28;20028;-67
2023/08/11 09:29:04;;;;;;;3.20;1.80;;;25.40;66.10;;;;;;5047605;28;20033;-67
2023/08/11 09:31:30;;;;;;;1.98;1.23;;;25.50;65.00;;;;;;5047745;28;20480;-62
2023/08/11 09:33:56;;;;;;;2.28;1.15;;;25.50;64.90;;;;;;5047455;28;20051;-62
2023/08/11 09:36:21;;;;;;;1.60;1.00;;;25.60;65.20;;;;;;5053600;28;20037;-62
2023/08/11 09:38:48;;;;;;;4.25;1.85;;;25.80;65.30;;;;;;5048574;28;20124;-61
2023/08/11 09:41:15;;;;;;;1.20;1.10;;;25.90;64.90;;;;;;5042733;28;20107;-62
2023/08/11 09:43:48;;;;;;;1.70;1.20;;;25.90;65.00;;;;;;5038360;28;20424;-67
2023/08/11 09:46:14;;;;;;;1.05;1.00;;;26.00;65.10;;;;;;5051280;28;20103;-67
2023/08/11 09:48:40;;;;;;;1.00;0.90;;;26.20;65.10;;;;;;5046685;28;20045;-67
2023/08/11 09:51:13;;;;;;;1.30;1.20;;;26.30;65.10;;;;;;5048326;28;20036;-67
2023/08/11 09:53:43;;;;;;;1.52;1.20;;;26.40;65.00;;;;;;5048802;28;20029;-67
2023/08/11 09:56:12;;;;;;;2.05;1.40;;;26.60;64.80;;;;;;5050993;28;20468;-61
2023/08/11 09:58:39;;;;;;;1.13;1.00;;;26.80;64.60;;;;;;5047374;28;20480;-61
2023/08/11 10:01:10;;;;;;;2.17;1.02;;;26.90;64.40;;;;;;5047692;28;20037;-62
2023/08/11 10:03:43;;;;;;;1.25;1.15;;;27.10;63.80;;;;;;5043385;28;20532;-62
2023/08/11 10:06:13;;;;;;;1.05;0.93;;;27.10;63.70;;;;;;5045238;28;20040;-61
2023/08/11 10:08:40;;;;;;;1.42;1.10;;;27.00;63.40;;;;;;5046184;28;20045;-67
2023/08/11 10:11:06;;;;;;;4.63;1.98;;;27.00;63.70;;;;;;5045606;28;20048;-67
2023/08/11 10:13:33;;;;;;;2.22;1.20;;;27.10;62.50;;;;;;5048696;28;20378;-67
2023/08/11 10:15:59;;;;;;;1.10;1.02;;;27.10;62.40;;;;;;5040140;28;20052;-67
2023/08/11 10:18:26;;;;;;;1.50;1.10;;;27.30;62.50;;;;;;5058695;28;20045;-67
2023/08/11 10:20:52;;;;;;;1.83;1.10;;;27.50;62.30;;;;;;5052318;28;20036;-67
2023/08/11 10:23:18;;;;;;;1.10;1.00;;;27.70;62.00;;;;;;5043528;28;20415;-67
2023/08/11 10:25:46;;;;;;;1.55;0.90;;;27.70;61.80;;;;;;5040964;28;20040;-67
2023/08/11 10:28:12;;;;;;;7.57;1.45;;;27.70;61.90;;;;;;5056370;28;20286;-62
2023/08/11 10:30:40;;;;;;;1.23;1.13;;;27.70;61.20;;;;;;5050360;28;20021;-62
2023/08/11 10:33:09;;;;;;;1.05;0.90;;;27.70;60.70;;;;;;5059352;28;20089;-62
2023/08/11 10:35:57;;;;;;;1.15;1.05;;;27.90;61.20;;;;;;5054841;28;20395;-62
2023/08/11 10:38:31;;;;;;;2.65;1.15;;;28.10;60.90;;;;;;5047485;28;20047;-62
2023/08/11 10:41:01;;;;;;;1.92;1.38;;;28.30;60.40;;;;;;5053715;28;20036;-62
2023/08/11 10:43:32;;;;;;;2.17;1.15;;;28.40;59.40;;;;;;5050959;28;20120;-62
2023/08/11 10:46:17;;;;;;;1.35;0.95;;;28.40;58.10;;;;;;5057703;28;20030;-62
2023/08/11 10:48:43;;;;;;;1.15;0.70;;;28.30;58.40;;;;;;5047561;28;20156;-62
2023/08/11 10:51:33;;;;;;;3.20;1.30;;;28.20;59.00;;;;;;5060677;28;20584;-62
2023/08/11 10:54:09;;;;;;;1.58;1.20;;;28.30;59.90;;;;;;5059403;28;20410;-62
2023/08/11 10:56:45;;;;;;;2.20;0.90;;;28.40;58.70;;;;;;5056490;28;20060;-62
2023/08/11 10:59:23;;;;;;;1.10;1.00;;;28.40;58.80;;;;;;5048195;28;20092;-62
2023/08/11 11:01:51;;;;;;;0.93;0.93;;;28.60;59.20;;;;;;5048687;28;20420;-62
2023/08/11 11:04:19;;;;;;;3.00;1.30;;;28.80;57.50;;;;;;5051162;28;20116;-62
2023/08/11 11:06:46;;;;;;;1.50;1.10;;;28.90;56.80;;;;;;5044494;28;20531;-62
2023/08/11 11:09:12;;;;;;;2.08;0.88;;;29.00;56.90;;;;;;5039236;28;20052;-67
2023/08/11 11:11:38;;;;;;;1.02;0.93;;;29.10;56.60;;;;;;5042676;28;20088;-67
2023/08/11 11:14:08;;;;;;;1.00;1.00;;;29.20;55.90;;;;;;5039901;28;21117;-62
2023/08/11 11:16:35;;;;;;;1.27;0.82;;;29.30;55.30;;;;;;5049988;28;20041;-62
2023/08/11 11:19:06;;;;;;;1.13;1.02;;;29.40;55.40;;;;;;5030365;28;20480;-62
2023/08/11 11:21:32;;;;;;;1.40;0.90;;;29.60;55.70;;;;;;5037755;28;20431;-62
2023/08/11 11:23:58;;;;;;;1.15;0.70;;;29.70;55.10;;;;;;5030328;28;20091;-62
2023/08/11 11:26:31;;;;;;;1.85;1.15;;;29.90;55.20;;;;;;5051985;28;20081;-62
2023/08/11 11:29:02;;;;;;;0.93;0.93;;;30.00;55.10;;;;;;5037141;28;20052;-62
2023/08/11 11:31:31;;;;;;;0.65;0.65;;;30.10;55.30;;;;;;5042315;28;20028;-62
2023/08/11 11:33:57;;;;;;;1.10;1.00;;;30.20;55.00;;;;;;5031581;28;20033;-62
2023/08/11 11:36:23;;;;;;;1.58;0.85;;;30.30;54.80;;;;;;5033436;28;20032;-62
2023/08/11 11:38:50;;;;;;;1.20;0.90;;;30.40;54.60;;;;;;5043078;28;20038;-62
2023/08/11 11:41:19;;;;;;;0.90;0.68;;;30.50;54.00;;;;;;5038371;28;20024;-62
2023/08/11 11:43:48;;;;;;;0.60;0.60;;;30.50;54.00;;;;;;5043086;28;20104;-67
2023/08/11 11:46:14;;;;;;;1.13;0.98;;;30.60;53.90;;;;;;5051470;28;20040;-67
2023/08/11 11:49:02;;;;;;;1.33;1.08;;;30.70;53.30;;;;;;5038658;28;20017;-67
2023/08/11 11:51:30;;;;;;;1.52;1.13;;;30.70;53.20;;;;;;5039229;28;20564;-67
2023/08/11 11:54:00;;;;;;;2.13;1.10;;;30.80;52.70;;;;;;5044066;28;20097;-67
2023/08/11 11:56:30;;;;;;;3.22;1.05;;;30.80;52.70;;;;;;5049508;28;20024;-67
2023/08/11 11:58:56;;;;;;;1.05;0.90;;;30.90;52.60;;;;;;5048803;28;20052;-67
2023/08/11 12:01:25;;;;;;;0.70;0.70;;;30.90;51.70;;;;;;5053423;28;20028;-67
2023/08/11 12:03:53;;;;;;;1.38;1.27;;;30.90;52.00;;;;;;5036796;28;20431;-67
2023/08/11 12:06:19;;;;;;;1.17;0.90;;;31.00;51.20;;;;;;5040565;28;20029;-67
2023/08/11 12:08:48;;;;;;;1.50;1.35;;;31.00;51.20;;;;;;5042641;28;20029;-67
2023/08/11 12:11:20;;;;;;;0.65;0.65;;;31.10;51.50;;;;;;5042941;28;20053;-67
2023/08/11 12:13:46;;;;;;;1.40;0.95;;;31.20;51.00;;;;;;5033219;28;20148;-62
2023/08/11 12:16:15;;;;;;;1.00;0.90;;;31.20;51.90;;;;;;5037710;28;20734;-62
2023/08/11 12:18:41;;;;;;;0.85;0.85;;;31.40;51.30;;;;;;5043296;28;20036;-61
2023/08/11 12:21:08;;;;;;;1.00;1.00;;;31.40;51.80;;;;;;5038273;28;20392;-62
2023/08/11 12:23:35;;;;;;;1.10;1.00;;;31.60;51.70;;;;;;5041252;28;20029;-62
2023/08/11 12:26:01;;;;;;;1.15;0.77;;;31.60;51.10;;;;;;5044309;28;20064;-67
2023/08/11 12:28:27;;;;;;;1.08;0.80;;;31.60;51.30;;;;;;5041009;28;20045;-67
2023/08/11 12:30:54;;;;;;;0.70;0.70;;;31.60;50.80;;;;;;5043345;28;20033;-67
2023/08/11 12:33:19;;;;;;;1.17;1.08;;;31.80;51.10;;;;;;5042433;28;20380;-67
2023/08/11 12:35:47;;;;;;;2.25;0.80;;;32.00;50.70;;;;;;5048480;28;20046;-67
2023/08/11 12:38:13;;;;;;;1.75;0.80;;;32.10;50.60;;;;;;5048046;28;20104;-62
2023/08/11 12:40:45;;;;;;;1.50;0.77;;;32.10;50.10;;;;;;5047696;28;20021;-62
2023/08/11 12:43:12;;;;;;;1.15;1.05;;;32.10;50.20;;;;;;5035648;28;20414;-62
2023/08/11 12:45:40;;;;;;;2.42;0.90;;;32.20;50.30;;;;;;5030697;28;20515;-67
2023/08/11 12:48:09;;;;;;;1.40;1.08;;;32.20;50.40;;;;;;5029775;28;20030;-69